sensor_id;sensor_type;location;lat;lon;timestamp;pressure;altitude;pressure_sealevel;temperature;humidity
69955;BME280;57279;55.912;37.490;2023-05-01T00:00:01;98416.31;;;6.54;82.72
69955;BME280;57279;55.912;37.490;2023-05-01T00:02:30;98396.19;;;6.52;82.89
69955;BME280;57279;55.912;37.490;2023-05-01T00:04:56;98387.59;;;6.55;82.84
69955;BME280;57279;55.912;37.490;2023-05-01T00:07:21;98380.69;;;6.64;82.84
69955;BME280;57279;55.912;37.490;2023-05-01T00:09:47;98382.59;;;6.63;82.71
69955;BME280;57279;55.912;37.490;2023-05-01T00:12:12;98387.34;;;6.56;82.71
69955;BME280;57279;55.912;37.490;2023-05-01T00:14:38;98385.75;;;6.55;82.62
69955;BME280;57279;55.912;37.490;2023-05-01T00:17:04;98384.41;;;6.58;82.53
69955;BME280;57279;55.912;37.490;2023-05-01T00:19:30;98384.38;;;6.53;82.53
69955;BME280;57279;55.912;37.490;2023-05-01T00:21:56;98385.50;;;6.57;82.63
69955;BME280;57279;55.912;37.490;2023-05-01T00:24:21;98395.44;;;6.61;82.78
69955;BME280;57279;55.912;37.490;2023-05-01T00:26:47;98396.94;;;6.47;82.34
69955;BME280;57279;55.912;37.490;2023-05-01T00:29:13;98390.03;;;6.56;82.28
69955;BME280;57279;55.912;37.490;2023-05-01T00:31:38;98396.97;;;6.52;82.05
69955;BME280;57279;55.912;37.490;2023-05-01T00:34:06;98392.72;;;6.56;81.93
69955;BME280;57279;55.912;37.490;2023-05-01T00:36:32;98411.53;;;6.61;81.71
69955;BME280;57279;55.912;37.490;2023-05-01T00:38:57;98410.25;;;6.69;82.12
69955;BME280;57279;55.912;37.490;2023-05-01T00:41:23;98413.44;;;6.66;81.75
69955;BME280;57279;55.912;37.490;2023-05-01T00:43:49;98419.63;;;6.67;81.71
69955;BME280;57279;55.912;37.490;2023-05-01T00:46:14;98418.56;;;6.68;81.74
69955;BME280;57279;55.912;37.490;2023-05-01T00:48:40;98414.03;;;6.73;81.63
69955;BME280;57279;55.912;37.490;2023-05-01T00:51:06;98411.91;;;6.75;81.36
69955;BME280;57279;55.912;37.490;2023-05-01T00:53:32;98397.97;;;6.78;81.33
69955;BME280;57279;55.912;37.490;2023-05-01T00:55:58;98390.19;;;6.77;81.05
69955;BME280;57279;55.912;37.490;2023-05-01T00:58:25;98382.38;;;6.75;81.03
69955;BME280;57279;55.912;37.490;2023-05-01T01:00:51;98366.81;;;6.72;81.28
69955;BME280;57279;55.912;37.490;2023-05-01T01:03:17;98365.69;;;6.68;81.26
69955;BME280;57279;55.912;37.490;2023-05-01T01:12:38;98372.34;;;6.55;81.57
69955;BME280;57279;55.912;37.490;2023-05-01T01:21:22;98401.50;;;6.46;82.29
69955;BME280;57279;55.912;37.490;2023-05-01T01:24:13;98420.91;;;6.59;82.45
69955;BME280;57279;55.912;37.490;2023-05-01T01:32:55;98414.59;;;6.75;81.59
69955;BME280;57279;55.912;37.490;2023-05-01T01:35:26;98417.50;;;6.69;81.59
69955;BME280;57279;55.912;37.490;2023-05-01T01:37:56;98420.19;;;6.74;81.85
69955;BME280;57279;55.912;37.490;2023-05-01T01:40:28;98406.06;;;6.83;81.68
69955;BME280;57279;55.912;37.490;2023-05-01T01:43:06;98388.06;;;6.79;81.42
69955;BME280;57279;55.912;37.490;2023-05-01T01:45:42;98374.34;;;6.75;81.62
69955;BME280;57279;55.912;37.490;2023-05-01T01:48:14;98375.97;;;6.81;81.71
69955;BME280;57279;55.912;37.490;2023-05-01T01:50:43;98383.47;;;6.74;81.46
69955;BME280;57279;55.912;37.490;2023-05-01T01:53:13;98374.03;;;6.72;81.88
69955;BME280;57279;55.912;37.490;2023-05-01T01:55:42;98375.41;;;6.74;81.79
69955;BME280;57279;55.912;37.490;2023-05-01T01:58:10;98366.81;;;6.72;81.79
69955;BME280;57279;55.912;37.490;2023-05-01T02:00:39;98353.66;;;6.71;82.10
69955;BME280;57279;55.912;37.490;2023-05-01T02:03:08;98357.94;;;6.67;82.05
69955;BME280;57279;55.912;37.490;2023-05-01T02:05:35;98379.94;;;6.69;82.20
69955;BME280;57279;55.912;37.490;2023-05-01T02:08:03;98385.56;;;6.67;82.40
69955;BME280;57279;55.912;37.490;2023-05-01T02:10:31;98373.75;;;6.68;82.28
69955;BME280;57279;55.912;37.490;2023-05-01T02:12:58;98355.44;;;6.55;82.51
69955;BME280;57279;55.912;37.490;2023-05-01T02:15:26;98338.78;;;6.48;83.05
69955;BME280;57279;55.912;37.490;2023-05-01T02:17:52;98338.31;;;6.61;82.87
69955;BME280;57279;55.912;37.490;2023-05-01T02:20:20;98356.00;;;6.57;83.26
69955;BME280;57279;55.912;37.490;2023-05-01T02:22:47;98362.19;;;6.62;82.76
69955;BME280;57279;55.912;37.490;2023-05-01T02:25:14;98375.94;;;6.71;82.78
69955;BME280;57279;55.912;37.490;2023-05-01T02:27:47;98367.59;;;6.68;82.58
69955;BME280;57279;55.912;37.490;2023-05-01T02:30:16;98368.63;;;6.61;82.54
69955;BME280;57279;55.912;37.490;2023-05-01T02:32:43;98360.34;;;6.68;82.69
69955;BME280;57279;55.912;37.490;2023-05-01T02:35:09;98347.41;;;6.60;82.41
69955;BME280;57279;55.912;37.490;2023-05-01T02:37:35;98332.72;;;6.68;82.62
69955;BME280;57279;55.912;37.490;2023-05-01T02:40:02;98337.56;;;6.71;82.45
69955;BME280;57279;55.912;37.490;2023-05-01T02:42:28;98341.34;;;6.75;82.40
69955;BME280;57279;55.912;37.490;2023-05-01T02:45:01;98353.16;;;6.79;82.28
69955;BME280;57279;55.912;37.490;2023-05-01T02:47:31;98369.50;;;6.72;81.82
69955;BME280;57279;55.912;37.490;2023-05-01T02:49:58;98378.06;;;6.69;81.93
69955;BME280;57279;55.912;37.490;2023-05-01T02:52:25;98394.41;;;6.68;82.17
69955;BME280;57279;55.912;37.490;2023-05-01T02:55:04;98401.09;;;6.65;82.42
69955;BME280;57279;55.912;37.490;2023-05-01T02:57:31;98405.44;;;6.71;82.27
69955;BME280;57279;55.912;37.490;2023-05-01T02:59:57;98418.91;;;6.81;81.74
69955;BME280;57279;55.912;37.490;2023-05-01T03:02:23;98410.91;;;6.87;81.64
69955;BME280;57279;55.912;37.490;2023-05-01T03:04:48;98412.28;;;6.94;81.41
69955;BME280;57279;55.912;37.490;2023-05-01T03:07:14;98411.28;;;7.05;81.65
69955;BME280;57279;55.912;37.490;2023-05-01T03:09:39;98408.84;;;7.04;81.35
69955;BME280;57279;55.912;37.490;2023-05-01T03:12:05;98414.75;;;7.01;81.24
69955;BME280;57279;55.912;37.490;2023-05-01T03:14:31;98414.22;;;6.99;81.04
69955;BME280;57279;55.912;37.490;2023-05-01T03:16:57;98405.34;;;6.98;80.94
69955;BME280;57279;55.912;37.490;2023-05-01T03:19:22;98404.25;;;6.94;81.14
69955;BME280;57279;55.912;37.490;2023-05-01T03:21:48;98407.50;;;7.01;80.89
69955;BME280;57279;55.912;37.490;2023-05-01T03:24:13;98399.41;;;6.96;80.96
69955;BME280;57279;55.912;37.490;2023-05-01T03:26:42;98405.13;;;7.05;81.03
69955;BME280;57279;55.912;37.490;2023-05-01T03:29:08;98411.63;;;7.14;81.09
69955;BME280;57279;55.912;37.490;2023-05-01T03:31:34;98410.25;;;7.12;81.06
69955;BME280;57279;55.912;37.490;2023-05-01T03:34:00;98405.41;;;7.14;80.96
69955;BME280;57279;55.912;37.490;2023-05-01T03:36:25;98401.16;;;7.18;81.07
69955;BME280;57279;55.912;37.490;2023-05-01T03:38:52;98396.28;;;7.10;81.11
69955;BME280;57279;55.912;37.490;2023-05-01T03:41:36;98405.41;;;7.09;80.99
69955;BME280;57279;55.912;37.490;2023-05-01T03:44:07;98402.41;;;7.00;81.58
69955;BME280;57279;55.912;37.490;2023-05-01T03:46:39;98406.34;;;6.87;81.61
69955;BME280;57279;55.912;37.490;2023-05-01T03:49:06;98408.81;;;6.94;82.03
69955;BME280;57279;55.912;37.490;2023-05-01T03:51:38;98406.38;;;6.92;82.20
69955;BME280;57279;55.912;37.490;2023-05-01T03:54:04;98408.78;;;6.89;81.98
69955;BME280;57279;55.912;37.490;2023-05-01T03:56:40;98424.91;;;6.94;82.21
69955;BME280;57279;55.912;37.490;2023-05-01T03:59:05;98408.31;;;6.97;82.23
69955;BME280;57279;55.912;37.490;2023-05-01T04:01:31;98415.00;;;6.99;82.09
69955;BME280;57279;55.912;37.490;2023-05-01T04:04:00;98411.53;;;6.99;82.01
69955;BME280;57279;55.912;37.490;2023-05-01T04:06:27;98413.72;;;7.07;81.83
69955;BME280;57279;55.912;37.490;2023-05-01T04:08:52;98417.16;;;7.02;81.87
69955;BME280;57279;55.912;37.490;2023-05-01T04:11:18;98420.88;;;6.91;81.87
69955;BME280;57279;55.912;37.490;2023-05-01T04:13:43;98414.13;;;6.83;82.52
69955;BME280;57279;55.912;37.490;2023-05-01T04:16:10;98414.91;;;6.84;82.77
69955;BME280;57279;55.912;37.490;2023-05-01T04:18:35;98422.16;;;6.83;82.60
69955;BME280;57279;55.912;37.490;2023-05-01T04:21:01;98413.59;;;6.87;82.72
69955;BME280;57279;55.912;37.490;2023-05-01T04:23:27;98412.84;;;6.96;82.44
69955;BME280;57279;55.912;37.490;2023-05-01T04:25:56;98420.69;;;7.08;82.30
69955;BME280;57279;55.912;37.490;2023-05-01T04:28:22;98415.56;;;7.01;81.77
69955;BME280;57279;55.912;37.490;2023-05-01T04:30:47;98420.41;;;7.04;82.04
69955;BME280;57279;55.912;37.490;2023-05-01T04:33:13;98428.19;;;7.01;82.16
69955;BME280;57279;55.912;37.490;2023-05-01T04:35:42;98419.28;;;7.00;82.44
69955;BME280;57279;55.912;37.490;2023-05-01T04:38:08;98422.28;;;7.04;82.44
69955;BME280;57279;55.912;37.490;2023-05-01T04:40:36;98428.72;;;7.08;82.45
69955;BME280;57279;55.912;37.490;2023-05-01T04:43:01;98432.72;;;7.00;82.20
69955;BME280;57279;55.912;37.490;2023-05-01T04:45:27;98429.28;;;7.05;82.48
69955;BME280;57279;55.912;37.490;2023-05-01T04:47:53;98432.81;;;7.16;82.33
69955;BME280;57279;55.912;37.490;2023-05-01T04:50:19;98434.22;;;7.23;81.89
69955;BME280;57279;55.912;37.490;2023-05-01T04:52:45;98436.63;;;7.20;82.29
69955;BME280;57279;55.912;37.490;2023-05-01T04:55:11;98438.00;;;7.28;82.30
69955;BME280;57279;55.912;37.490;2023-05-01T04:57:47;98447.69;;;7.34;82.05
69955;BME280;57279;55.912;37.490;2023-05-01T05:00:14;98449.78;;;7.27;81.87
69955;BME280;57279;55.912;37.490;2023-05-01T05:02:49;98461.06;;;7.23;81.92
69955;BME280;57279;55.912;37.490;2023-05-01T05:05:14;98456.75;;;7.22;82.14
69955;BME280;57279;55.912;37.490;2023-05-01T05:07:40;98451.59;;;7.16;82.32
69955;BME280;57279;55.912;37.490;2023-05-01T05:10:26;98436.88;;;7.18;82.30
69955;BME280;57279;55.912;37.490;2023-05-01T05:13:08;98439.00;;;7.21;82.48
69955;BME280;57279;55.912;37.490;2023-05-01T05:15:35;98443.88;;;7.24;82.07
69955;BME280;57279;55.912;37.490;2023-05-01T05:18:02;98444.47;;;7.32;81.92
69955;BME280;57279;55.912;37.490;2023-05-01T05:20:29;98438.53;;;7.35;82.10
69955;BME280;57279;55.912;37.490;2023-05-01T05:22:55;98446.66;;;7.45;82.04
69955;BME280;57279;55.912;37.490;2023-05-01T05:25:23;98448.84;;;7.53;81.86
69955;BME280;57279;55.912;37.490;2023-05-01T05:27:49;98445.34;;;7.53;81.27
69955;BME280;57279;55.912;37.490;2023-05-01T05:30:15;98444.56;;;7.52;81.31
69955;BME280;57279;55.912;37.490;2023-05-01T05:32:41;98452.63;;;7.52;81.62
69955;BME280;57279;55.912;37.490;2023-05-01T05:35:07;98437.34;;;7.63;81.37
69955;BME280;57279;55.912;37.490;2023-05-01T05:37:33;98450.00;;;7.68;80.82
69955;BME280;57279;55.912;37.490;2023-05-01T05:39:59;98448.38;;;7.72;80.67
69955;BME280;57279;55.912;37.490;2023-05-01T05:42:26;98456.75;;;7.75;80.54
69955;BME280;57279;55.912;37.490;2023-05-01T05:44:52;98457.31;;;7.82;80.44
69955;BME280;57279;55.912;37.490;2023-05-01T05:47:18;98458.06;;;7.78;80.43
69955;BME280;57279;55.912;37.490;2023-05-01T05:49:44;98448.91;;;7.69;80.18
69955;BME280;57279;55.912;37.490;2023-05-01T05:52:10;98456.47;;;7.82;80.48
69955;BME280;57279;55.912;37.490;2023-05-01T05:54:37;98463.22;;;7.90;79.88
69955;BME280;57279;55.912;37.490;2023-05-01T05:57:03;98457.91;;;8.00;79.40
69955;BME280;57279;55.912;37.490;2023-05-01T05:59:29;98457.63;;;8.07;79.08
69955;BME280;57279;55.912;37.490;2023-05-01T06:01:55;98460.84;;;8.09;78.82
69955;BME280;57279;55.912;37.490;2023-05-01T06:04:20;98464.38;;;8.14;78.70
69955;BME280;57279;55.912;37.490;2023-05-01T06:06:47;98467.88;;;8.15;77.93
69955;BME280;57279;55.912;37.490;2023-05-01T06:09:13;98477.00;;;8.14;77.61
69955;BME280;57279;55.912;37.490;2023-05-01T06:11:39;98478.66;;;8.25;77.63
69955;BME280;57279;55.912;37.490;2023-05-01T06:14:05;98475.69;;;8.27;77.36
69955;BME280;57279;55.912;37.490;2023-05-01T06:16:31;98475.97;;;8.30;77.17
69955;BME280;57279;55.912;37.490;2023-05-01T06:18:58;98484.03;;;8.30;76.88
69955;BME280;57279;55.912;37.490;2023-05-01T06:21:24;98471.66;;;8.29;76.59
69955;BME280;57279;55.912;37.490;2023-05-01T06:23:50;98478.66;;;8.35;76.56
69955;BME280;57279;55.912;37.490;2023-05-01T06:26:26;98489.75;;;8.44;76.28
69955;BME280;57279;55.912;37.490;2023-05-01T06:28:53;98498.59;;;8.45;76.14
69955;BME280;57279;55.912;37.490;2023-05-01T06:31:19;98500.25;;;8.66;75.60
69955;BME280;57279;55.912;37.490;2023-05-01T06:33:49;98505.09;;;8.69;75.18
69955;BME280;57279;55.912;37.490;2023-05-01T06:36:23;98505.63;;;8.61;74.29
69955;BME280;57279;55.912;37.490;2023-05-01T06:38:48;98503.75;;;8.77;73.99
69955;BME280;57279;55.912;37.490;2023-05-01T06:41:17;98511.28;;;8.70;73.84
69955;BME280;57279;55.912;37.490;2023-05-01T06:43:43;98519.38;;;8.75;73.71
69955;BME280;57279;55.912;37.490;2023-05-01T06:46:09;98511.81;;;8.56;74.04
69955;BME280;57279;55.912;37.490;2023-05-01T06:48:35;98515.59;;;8.66;74.37
69955;BME280;57279;55.912;37.490;2023-05-01T06:51:00;98510.22;;;8.81;74.41
69955;BME280;57279;55.912;37.490;2023-05-01T06:53:26;98512.09;;;8.91;73.96
69955;BME280;57279;55.912;37.490;2023-05-01T06:55:52;98511.03;;;8.82;74.33
69955;BME280;57279;55.912;37.490;2023-05-01T06:58:17;98525.03;;;8.94;73.78
69955;BME280;57279;55.912;37.490;2023-05-01T07:00:43;98522.84;;;8.75;73.91
69955;BME280;57279;55.912;37.490;2023-05-01T07:03:09;98523.41;;;8.88;73.70
69955;BME280;57279;55.912;37.490;2023-05-01T07:05:34;98529.88;;;8.92;73.16
69955;BME280;57279;55.912;37.490;2023-05-01T07:08:00;98533.38;;;9.13;73.00
69955;BME280;57279;55.912;37.490;2023-05-01T07:10:26;98531.50;;;9.08;72.59
69955;BME280;57279;55.912;37.490;2023-05-01T07:12:51;98552.22;;;9.03;72.31
69955;BME280;57279;55.912;37.490;2023-05-01T07:15:17;98547.38;;;9.20;72.52
69955;BME280;57279;55.912;37.490;2023-05-01T07:17:43;98551.41;;;9.28;71.80
69955;BME280;57279;55.912;37.490;2023-05-01T07:20:10;98544.38;;;9.27;70.83
69955;BME280;57279;55.912;37.490;2023-05-01T07:22:36;98546.03;;;9.33;69.67
69955;BME280;57279;55.912;37.490;2023-05-01T07:25:02;98552.19;;;9.44;69.09
69955;BME280;57279;55.912;37.490;2023-05-01T07:27:28;98552.69;;;9.61;69.21
69955;BME280;57279;55.912;37.490;2023-05-01T07:29:55;98549.97;;;9.71;68.37
69955;BME280;57279;55.912;37.490;2023-05-01T07:32:21;98552.13;;;9.74;68.71
69955;BME280;57279;55.912;37.490;2023-05-01T07:34:46;98556.69;;;9.74;68.05
69955;BME280;57279;55.912;37.490;2023-05-01T07:37:12;98558.03;;;9.82;66.66
69955;BME280;57279;55.912;37.490;2023-05-01T07:39:38;98556.97;;;9.72;65.58
69955;BME280;57279;55.912;37.490;2023-05-01T07:42:03;98558.34;;;9.70;64.11
69955;BME280;57279;55.912;37.490;2023-05-01T07:44:29;98568.53;;;9.88;63.53
69955;BME280;57279;55.912;37.490;2023-05-01T07:47:01;98563.09;;;9.98;68.07
69955;BME280;57279;55.912;37.490;2023-05-01T07:49:27;98569.28;;;9.99;61.76
69955;BME280;57279;55.912;37.490;2023-05-01T07:51:53;98578.50;;;9.93;60.80
69955;BME280;57279;55.912;37.490;2023-05-01T07:54:20;98584.19;;;9.76;61.35
69955;BME280;57279;55.912;37.490;2023-05-01T07:56:47;98579.59;;;9.76;61.98
69955;BME280;57279;55.912;37.490;2023-05-01T07:59:14;98588.97;;;10.05;62.00
69955;BME280;57279;55.912;37.490;2023-05-01T08:01:39;98587.63;;;10.02;60.66
69955;BME280;57279;55.912;37.490;2023-05-01T08:04:05;98594.09;;;10.11;61.42
69955;BME280;57279;55.912;37.490;2023-05-01T08:06:31;98597.81;;;10.21;61.50
69955;BME280;57279;55.912;37.490;2023-05-01T08:08:57;98598.59;;;10.31;62.00
69955;BME280;57279;55.912;37.490;2023-05-01T08:11:24;98606.47;;;10.17;61.65
69955;BME280;57279;55.912;37.490;2023-05-01T08:13:50;98608.91;;;10.09;61.88
69955;BME280;57279;55.912;37.490;2023-05-01T08:16:16;98611.63;;;10.04;62.37
69955;BME280;57279;55.912;37.490;2023-05-01T08:18:44;98618.09;;;10.13;62.92
69955;BME280;57279;55.912;37.490;2023-05-01T08:21:10;98620.75;;;10.18;62.60
69955;BME280;57279;55.912;37.490;2023-05-01T08:23:36;98622.66;;;10.17;63.05
69955;BME280;57279;55.912;37.490;2023-05-01T08:26:02;98632.34;;;10.34;63.77
69955;BME280;57279;55.912;37.490;2023-05-01T08:28:28;98639.66;;;10.13;64.01
69955;BME280;57279;55.912;37.490;2023-05-01T08:30:53;98642.38;;;10.08;64.50
69955;BME280;57279;55.912;37.490;2023-05-01T08:33:19;98642.41;;;9.82;64.49
69955;BME280;57279;55.912;37.490;2023-05-01T08:35:45;98651.59;;;9.81;65.14
69955;BME280;57279;55.912;37.490;2023-05-01T08:38:10;98650.75;;;9.96;64.57
69955;BME280;57279;55.912;37.490;2023-05-01T08:40:37;98656.41;;;10.00;64.42
69955;BME280;57279;55.912;37.490;2023-05-01T08:43:03;98656.16;;;9.96;63.70
69955;BME280;57279;55.912;37.490;2023-05-01T08:45:32;98656.41;;;10.00;63.46
69955;BME280;57279;55.912;37.490;2023-05-01T08:48:05;98657.44;;;10.14;63.40
69955;BME280;57279;55.912;37.490;2023-05-01T08:50:35;98664.22;;;10.06;62.88
69955;BME280;57279;55.912;37.490;2023-05-01T08:53:04;98669.09;;;9.94;62.71
69955;BME280;57279;55.912;37.490;2023-05-01T08:55:31;98668.00;;;9.95;63.41
69955;BME280;57279;55.912;37.490;2023-05-01T08:57:58;98671.78;;;9.89;63.01
69955;BME280;57279;55.912;37.490;2023-05-01T09:00:24;98680.66;;;10.05;62.98
69955;BME280;57279;55.912;37.490;2023-05-01T09:02:50;98684.72;;;9.97;62.74
69955;BME280;57279;55.912;37.490;2023-05-01T09:05:17;98685.53;;;9.97;62.63
69955;BME280;57279;55.912;37.490;2023-05-01T09:07:44;98685.47;;;10.23;62.78
69955;BME280;57279;55.912;37.490;2023-05-01T09:10:17;98690.06;;;10.38;62.24
69955;BME280;57279;55.912;37.490;2023-05-01T09:12:45;98685.13;;;10.61;61.61
69955;BME280;57279;55.912;37.490;2023-05-01T09:15:11;98678.31;;;10.73;61.29
69955;BME280;57279;55.912;37.490;2023-05-01T09:17:37;98691.31;;;10.66;60.75
69955;BME280;57279;55.912;37.490;2023-05-01T09:20:04;98694.63;;;10.48;60.45
69955;BME280;57279;55.912;37.490;2023-05-01T09:22:31;98698.38;;;10.57;60.29
69955;BME280;57279;55.912;37.490;2023-05-01T09:24:57;98700.59;;;10.40;60.32
69955;BME280;57279;55.912;37.490;2023-05-01T09:27:31;98704.63;;;10.16;60.34
69955;BME280;57279;55.912;37.490;2023-05-01T09:29:58;98704.13;;;10.04;60.64
69955;BME280;57279;55.912;37.490;2023-05-01T09:32:26;98713.56;;;10.12;60.22
69955;BME280;57279;55.912;37.490;2023-05-01T09:34:55;98703.84;;;10.11;60.54
69955;BME280;57279;55.912;37.490;2023-05-01T09:37:33;98701.97;;;10.32;59.99
69955;BME280;57279;55.912;37.490;2023-05-01T09:40:12;98711.66;;;10.33;59.66
69955;BME280;57279;55.912;37.490;2023-05-01T09:45:11;98711.34;;;10.45;58.92
69955;BME280;57279;55.912;37.490;2023-05-01T09:47:38;98709.75;;;10.44;58.36
69955;BME280;57279;55.912;37.490;2023-05-01T09:50:04;98717.56;;;10.30;58.94
69955;BME280;57279;55.912;37.490;2023-05-01T09:52:30;98721.09;;;10.35;59.20
69955;BME280;57279;55.912;37.490;2023-05-01T09:55:16;98721.66;;;10.17;60.14
69955;BME280;57279;55.912;37.490;2023-05-01T09:57:42;98721.91;;;10.10;60.65
69955;BME280;57279;55.912;37.490;2023-05-01T10:00:09;98726.25;;;10.06;60.94
69955;BME280;57279;55.912;37.490;2023-05-01T10:02:35;98735.16;;;9.71;60.46
69955;BME280;57279;55.912;37.490;2023-05-01T10:05:01;98725.44;;;9.54;61.43
69955;BME280;57279;55.912;37.490;2023-05-01T10:07:28;98726.00;;;9.56;61.86
69955;BME280;57279;55.912;37.490;2023-05-01T10:09:54;98725.72;;;9.58;61.67
69955;BME280;57279;55.912;37.490;2023-05-01T10:12:27;98738.38;;;9.63;62.12
69955;BME280;57279;55.912;37.490;2023-05-01T10:14:55;98743.75;;;9.32;63.19
69955;BME280;57279;55.912;37.490;2023-05-01T10:17:21;98755.06;;;9.39;63.18
69955;BME280;57279;55.912;37.490;2023-05-01T10:19:47;98757.22;;;9.32;63.45
69955;BME280;57279;55.912;37.490;2023-05-01T10:22:14;98768.75;;;9.17;64.03
69955;BME280;57279;55.912;37.490;2023-05-01T10:24:43;98776.75;;;8.91;64.81
69955;BME280;57279;55.912;37.490;2023-05-01T10:27:11;98778.03;;;8.78;65.43
69955;BME280;57279;55.912;37.490;2023-05-01T10:29:39;98794.63;;;8.60;65.90
69955;BME280;57279;55.912;37.490;2023-05-01T10:32:06;98809.38;;;8.15;66.74
69955;BME280;57279;55.912;37.490;2023-05-01T10:34:36;98799.88;;;8.07;67.24
69955;BME280;57279;55.912;37.490;2023-05-01T10:37:32;98812.56;;;7.79;68.03
69955;BME280;57279;55.912;37.490;2023-05-01T10:39:59;98820.31;;;7.76;68.22
69955;BME280;57279;55.912;37.490;2023-05-01T10:42:25;98809.47;;;7.66;68.64
69955;BME280;57279;55.912;37.490;2023-05-01T10:44:52;98820.06;;;7.77;68.33
69955;BME280;57279;55.912;37.490;2023-05-01T10:50:02;98839.78;;;7.61;68.08
69955;BME280;57279;55.912;37.490;2023-05-01T10:52:29;98834.09;;;7.57;68.37
69955;BME280;57279;55.912;37.490;2023-05-01T10:55:31;98844.25;;;7.50;68.35
69955;BME280;57279;55.912;37.490;2023-05-01T10:57:57;98841.94;;;7.37;69.08
69955;BME280;57279;55.912;37.490;2023-05-01T11:00:22;98857.53;;;7.40;69.22
69955;BME280;57279;55.912;37.490;2023-05-01T11:02:48;98861.34;;;7.44;69.32
69955;BME280;57279;55.912;37.490;2023-05-01T11:05:13;98861.25;;;7.34;68.59
69955;BME280;57279;55.912;37.490;2023-05-01T11:07:39;98886.16;;;7.07;69.09
69955;BME280;57279;55.912;37.490;2023-05-01T11:10:24;98886.09;;;6.85;70.16
69955;BME280;57279;55.912;37.490;2023-05-01T11:12:51;98880.91;;;6.95;70.11
69955;BME280;57279;55.912;37.490;2023-05-01T11:15:31;98883.72;;;7.05;69.67
69955;BME280;57279;55.912;37.490;2023-05-01T11:18:00;98881.50;;;6.80;69.85
69955;BME280;57279;55.912;37.490;2023-05-01T11:22:56;98889.44;;;6.75;70.54
69955;BME280;57279;55.912;37.490;2023-05-01T11:27:53;98889.00;;;6.61;70.75
69955;BME280;57279;55.912;37.490;2023-05-01T11:30:19;98887.69;;;6.64;70.84
69955;BME280;57279;55.912;37.490;2023-05-01T11:32:46;98903.69;;;6.76;70.79
69955;BME280;57279;55.912;37.490;2023-05-01T11:35:23;98904.50;;;6.76;70.86
69955;BME280;57279;55.912;37.490;2023-05-01T11:37:51;98910.44;;;6.78;70.82
69955;BME280;57279;55.912;37.490;2023-05-01T11:42:47;98936.28;;;6.51;70.74
69955;BME280;57279;55.912;37.490;2023-05-01T11:45:13;98934.81;;;6.26;70.46
69955;BME280;57279;55.912;37.490;2023-05-01T11:47:39;98934.34;;;6.29;71.41
69955;BME280;57279;55.912;37.490;2023-05-01T11:50:06;98925.06;;;6.37;71.97
69955;BME280;57279;55.912;37.490;2023-05-01T11:53:01;98933.66;;;6.22;72.53
69955;BME280;57279;55.912;37.490;2023-05-01T11:55:33;98940.09;;;6.21;73.46
69955;BME280;57279;55.912;37.490;2023-05-01T11:57:59;98957.22;;;6.20;74.35
69955;BME280;57279;55.912;37.490;2023-05-01T12:00:32;98943.16;;;6.13;74.64
69955;BME280;57279;55.912;37.490;2023-05-01T12:03:03;98955.50;;;6.14;74.71
69955;BME280;57279;55.912;37.490;2023-05-01T12:05:34;98952.06;;;6.01;74.42
69955;BME280;57279;55.912;37.490;2023-05-01T12:08:06;98967.00;;;5.97;74.37
69955;BME280;57279;55.912;37.490;2023-05-01T12:10:33;98960.34;;;6.00;75.10
69955;BME280;57279;55.912;37.490;2023-05-01T12:13:01;98965.28;;;5.79;74.94
69955;BME280;57279;55.912;37.490;2023-05-01T12:15:27;98969.84;;;5.67;75.16
69955;BME280;57279;55.912;37.490;2023-05-01T12:17:53;98971.00;;;5.83;75.73
69955;BME280;57279;55.912;37.490;2023-05-01T12:20:42;98978.78;;;5.96;75.24
69955;BME280;57279;55.912;37.490;2023-05-01T12:23:10;98993.84;;;5.74;74.80
69955;BME280;57279;55.912;37.490;2023-05-01T12:25:37;98992.56;;;5.64;75.38
69955;BME280;57279;55.912;37.490;2023-05-01T12:28:11;98977.03;;;5.78;75.86
69955;BME280;57279;55.912;37.490;2023-05-01T12:30:37;98981.91;;;5.93;75.58
69955;BME280;57279;55.912;37.490;2023-05-01T12:33:08;98998.72;;;5.77;76.12
69955;BME280;57279;55.912;37.490;2023-05-01T12:35:34;98992.78;;;5.75;76.17
69955;BME280;57279;55.912;37.490;2023-05-01T12:38:09;98995.78;;;5.78;76.51
69955;BME280;57279;55.912;37.490;2023-05-01T12:40:48;98998.72;;;5.77;76.31
69955;BME280;57279;55.912;37.490;2023-05-01T12:43:17;98997.16;;;5.93;75.97
69955;BME280;57279;55.912;37.490;2023-05-01T12:45:43;99009.31;;;5.83;75.21
69955;BME280;57279;55.912;37.490;2023-05-01T12:48:10;99003.63;;;5.68;75.88
69955;BME280;57279;55.912;37.490;2023-05-01T12:50:36;99008.97;;;5.80;76.05
69955;BME280;57279;55.912;37.490;2023-05-01T12:53:02;99010.69;;;5.86;76.40
69955;BME280;57279;55.912;37.490;2023-05-01T12:55:28;99013.47;;;5.91;76.82
69955;BME280;57279;55.912;37.490;2023-05-01T12:57:53;99014.94;;;6.11;77.75
69955;BME280;57279;55.912;37.490;2023-05-01T13:00:19;99025.94;;;5.97;76.74
69955;BME280;57279;55.912;37.490;2023-05-01T13:02:45;99032.72;;;6.00;77.19
69955;BME280;57279;55.912;37.490;2023-05-01T13:05:12;99025.09;;;6.09;77.43
69955;BME280;57279;55.912;37.490;2023-05-01T13:07:37;99031.03;;;6.11;76.30
69955;BME280;57279;55.912;37.490;2023-05-01T13:10:06;99035.41;;;6.00;76.02
69955;BME280;57279;55.912;37.490;2023-05-01T13:12:32;99036.19;;;6.00;75.55
69955;BME280;57279;55.912;37.490;2023-05-01T13:14:58;99039.34;;;5.97;75.40
69955;BME280;57279;55.912;37.490;2023-05-01T13:17:29;99046.78;;;6.07;76.39
69955;BME280;57279;55.912;37.490;2023-05-01T13:19:56;99045.06;;;6.01;75.57
69955;BME280;57279;55.912;37.490;2023-05-01T13:22:36;99051.44;;;6.12;76.16
69955;BME280;57279;55.912;37.490;2023-05-01T13:25:23;99041.00;;;6.27;75.70
69955;BME280;57279;55.912;37.490;2023-05-01T13:27:50;99048.53;;;6.13;74.08
69955;BME280;57279;55.912;37.490;2023-05-01T13:30:29;99047.94;;;6.11;74.81
69955;BME280;57279;55.912;37.490;2023-05-01T13:32:55;99053.44;;;6.33;75.55
69955;BME280;57279;55.912;37.490;2023-05-01T13:35:22;99055.03;;;6.46;75.33